Have a Safe July 4th! 

Flight Track Log - Related Links

Times and Time Zones

All times are in EDT time to prevent confusion due to time zone crossing. See the WBR2626 flight status page for this flight to view local times or setup timezone preferences in your user account.

Time Position Orientation Groundspeed Altitude Reporting Facility
EDT Latitude Longitude Course Direction KTS MPH feet Rate Location/Type
Thu 04:29:07 PM 38.7500 -90.3833 360° North 95 109 1,200  Level Gateway (St. Louis) TRACON
Thu 04:30:07 PM 38.7833 -90.3833 360° North 110 127 1,700 600 Climbing Gateway (St. Louis) TRACON
Thu 04:31:07 PM 38.8000 -90.3833 360° North 115 132 2,400 750 Climbing Gateway (St. Louis) TRACON
Thu 04:32:07 PM 38.8333 -90.3833 360° North 119 137 3,200 750 Climbing Gateway (St. Louis) TRACON
Thu 04:33:07 PM 38.8667 -90.3833 360° North 119 137 3,900 700 Climbing Gateway (St. Louis) TRACON
Thu 04:34:07 PM 38.9000 -90.4000 339° North 121 139 4,600 700 Climbing Gateway (St. Louis) TRACON
Thu 04:35:07 PM 38.9333 -90.4000 360° North 119 137 5,300 632 Climbing Gateway (St. Louis) TRACON
Thu 04:36:20 PM 38.9753 -90.4150 344° North 119 137 6,000 311 Climbing Kansas City Center
Thu 04:37:22 PM 39.0142 -90.4319 341° North 139 160 6,000 97 Level Kansas City Center
Thu 04:38:24 PM 39.0639 -90.4500 344° North 154 177 6,200 484 Climbing Kansas City Center
Thu 04:39:26 PM 39.0978 -90.4650 341° North 136 157 7,000 629 Climbing Kansas City Center
Thu 04:40:28 PM 39.1308 -90.4814 339° North 129 148 7,500 484 Climbing Kansas City Center
Thu 04:41:30 PM 39.1667 -90.4931 346° North 132 152 8,000 242 Climbing Kansas City Center
Thu 04:42:32 PM 39.2067 -90.5025 350° North 141 162 8,000  Level Kansas City Center
Thu 04:43:34 PM 39.2472 -90.5189 343° North 150 173 8,000  Level Kansas City Center
Thu 04:44:36 PM 39.2953 -90.5386 342° North 151 174 8,000  Level Kansas City Center
Thu 04:45:38 PM 39.3356 -90.5547 343° North 151 174 8,000  Level Kansas City Center
Thu 04:46:41 PM 39.3756 -90.5703 343° North 151 174 8,000  Level Kansas City Center
Thu 04:47:43 PM 39.4167 -90.5872 342° North 154 177 8,000  Level Kansas City Center
Thu 04:48:45 PM 39.4581 -90.6022 344° North 156 180 8,000 48 Level Kansas City Center
Thu 04:49:47 PM 39.4981 -90.6158 345° North 150 173 8,100  Climbing Kansas City Center
Thu 04:50:49 PM 39.5481 -90.6344 344° North 155 178 8,000 -48 Descending Kansas City Center
Thu 04:51:51 PM 39.5881 -90.6500 343° North 151 174 8,000  Level Kansas City Center
Thu 04:52:53 PM 39.6281 -90.6667 342° North 151 174 8,000  Level Kansas City Center
Thu 04:53:55 PM 39.6681 -90.6819 344° North 150 173 8,000  Level Kansas City Center
Thu 04:54:57 PM 39.7081 -90.6972 344° North 149 171 8,000  Level Kansas City Center
Thu 04:55:59 PM 39.7533 -90.7156 343° North 150 173 8,000  Level Kansas City Center
Thu 04:57:01 PM 39.7933 -90.7317 343° North 150 173 8,000  Level Kansas City Center
Thu 04:58:03 PM 39.8339 -90.7467 344° North 150 173 8,000  Level Kansas City Center
Thu 04:59:05 PM 39.8739 -90.7625 343° North 150 173 8,000  Level Kansas City Center
Thu 05:00:07 PM 39.9153 -90.7825 340° North 155 178 8,000 48 Level Kansas City Center
Thu 05:01:09 PM 39.9642 -90.7972 347° North 151 174 8,100  Climbing Kansas City Center
Thu 05:02:11 PM 40.0050 -90.8133 343° North 152 175 8,000 -48 Descending Kansas City Center
Thu 05:03:13 PM 40.0458 -90.8306 342° North 153 176 8,000  Level Kansas City Center
Thu 05:04:15 PM 40.0881 -90.8444 346° North 154 177 8,000  Level Kansas City Center
Thu 05:05:17 PM 40.1286 -90.8594 344° North 153 176 8,000 -290 Level Kansas City Center
Thu 05:06:19 PM 40.1697 -90.8742 345° North 153 176 7,400 -581 Descending Kansas City Center
Thu 05:07:21 PM 40.2136 -90.8925 342° North 159 183 6,800 -624 Descending Kansas City Center
Thu 05:08:24 PM 40.2653 -90.9125 344° North 161 185 6,100 -384 Descending Kansas City Center
Thu 05:09:26 PM 40.3081 -90.9292 343° North 161 185 6,000 -48 Descending Kansas City Center
Thu 05:10:28 PM 40.3506 -90.9447 344° North 160 184 6,000  Level Kansas City Center
Thu 05:11:30 PM 40.3917 -90.9681 337° Northwest 161 185 6,000 -194 Level Kansas City Center
Thu 05:12:32 PM 40.4292 -90.9853 341° North 151 174 5,600 -435 Descending Kansas City Center
Thu 05:13:34 PM 40.4717 -90.9992 346° North 152 175 5,100 -532 Descending Kansas City Center
Thu 05:14:36 PM 40.5236 -91.0203 343° North 160 184 4,500 -484 Descending Kansas City Center
Thu 05:15:38 PM 40.5625 -91.0364 343° North 152 175 4,100 -387 Descending Kansas City Center
Thu 05:16:40 PM 40.6011 -91.0525 342° North 148 170 3,700 -435 Descending Kansas City Center
Thu 05:17:42 PM 40.6425 -91.0717 341° North 152 175 3,200 -435 Descending Kansas City Center
Thu 05:18:44 PM 40.6819 -91.0908 340° North 152 175 2,800 -484 Descending Kansas City Center
Thu 05:19:46 PM 40.7231 -91.1072 343° North 152 175 2,200 -290 Descending Kansas City Center
Thu 05:20:48 PM 40.7578 -91.1697 306° West 170 196 2,200  Level Kansas City Center

Login

Don't have an account? Register now (free) for customized features, flight alerts, and more!